sensor_id;sensor_type;location;lat;lon;timestamp;pressure;altitude;pressure_sealevel;temperature;humidity
62544;BME280;48597;49.030;1.822;2022-12-10T00:01:22;100022.53;;;18.56;39.13
62544;BME280;48597;49.030;1.822;2022-12-10T00:03:48;100026.66;;;18.55;38.98
62544;BME280;48597;49.030;1.822;2022-12-10T00:06:17;100018.09;;;18.55;38.92
62544;BME280;48597;49.030;1.822;2022-12-10T00:08:42;100017.31;;;18.55;38.83
62544;BME280;48597;49.030;1.822;2022-12-10T00:11:10;100007.94;;;18.54;38.90
62544;BME280;48597;49.030;1.822;2022-12-10T00:13:37;100010.81;;;18.54;38.82
62544;BME280;48597;49.030;1.822;2022-12-10T00:16:04;100000.66;;;18.53;38.93
62544;BME280;48597;49.030;1.822;2022-12-10T00:18:30;100005.56;;;18.53;38.74
62544;BME280;48597;49.030;1.822;2022-12-10T00:20:56;100005.09;;;18.54;39.01
62544;BME280;48597;49.030;1.822;2022-12-10T00:23:22;100017.78;;;18.53;38.84
62544;BME280;48597;49.030;1.822;2022-12-10T00:25:47;100016.97;;;18.53;38.83
62544;BME280;48597;49.030;1.822;2022-12-10T00:28:13;100019.81;;;18.53;38.81
62544;BME280;48597;49.030;1.822;2022-12-10T00:30:38;100010.47;;;18.52;38.82
62544;BME280;48597;49.030;1.822;2022-12-10T00:33:05;100017.78;;;18.53;39.10
62544;BME280;48597;49.030;1.822;2022-12-10T00:35:30;100018.56;;;18.54;38.83
62544;BME280;48597;49.030;1.822;2022-12-10T00:38:01;100016.97;;;18.53;38.98
62544;BME280;48597;49.030;1.822;2022-12-10T00:40:26;100014.13;;;18.53;38.79
62544;BME280;48597;49.030;1.822;2022-12-10T00:42:51;100018.56;;;18.54;38.88
62544;BME280;48597;49.030;1.822;2022-12-10T00:45:17;100007.94;;;18.54;38.75
62544;BME280;48597;49.030;1.822;2022-12-10T00:47:43;100017.31;;;18.55;39.07
62544;BME280;48597;49.030;1.822;2022-12-10T00:50:08;100014.47;;;18.55;38.91
62544;BME280;48597;49.030;1.822;2022-12-10T00:52:35;100011.13;;;18.56;38.84
62544;BME280;48597;49.030;1.822;2022-12-10T00:55:00;100014.47;;;18.55;38.80
62544;BME280;48597;49.030;1.822;2022-12-10T00:57:26;100015.25;;;18.55;38.81
62544;BME280;48597;49.030;1.822;2022-12-10T00:59:51;100015.72;;;18.54;38.88
62544;BME280;48597;49.030;1.822;2022-12-10T01:02:17;100011.59;;;18.55;38.67
62544;BME280;48597;49.030;1.822;2022-12-10T01:04:42;100013.66;;;18.54;38.85
62544;BME280;48597;49.030;1.822;2022-12-10T01:07:07;100007.16;;;18.54;39.03
62544;BME280;48597;49.030;1.822;2022-12-10T01:09:34;100008.41;;;18.53;38.99
62544;BME280;48597;49.030;1.822;2022-12-10T01:12:01;100015.72;;;18.54;39.09
62544;BME280;48597;49.030;1.822;2022-12-10T01:14:31;100029.19;;;18.53;38.83
62544;BME280;48597;49.030;1.822;2022-12-10T01:17:00;100023.47;;;18.53;39.04
62544;BME280;48597;49.030;1.822;2022-12-10T01:19:28;100022.69;;;18.53;38.86
62544;BME280;48597;49.030;1.822;2022-12-10T01:21:55;100036.16;;;18.52;39.22
62544;BME280;48597;49.030;1.822;2022-12-10T01:24:21;100039.81;;;18.53;39.11
62544;BME280;48597;49.030;1.822;2022-12-10T01:26:48;100036.94;;;18.53;38.87
62544;BME280;48597;49.030;1.822;2022-12-10T01:29:14;100048.38;;;18.53;38.95
62544;BME280;48597;49.030;1.822;2022-12-10T01:31:40;100049.63;;;18.52;38.99
62544;BME280;48597;49.030;1.822;2022-12-10T01:34:07;100056.13;;;18.52;38.93
62544;BME280;48597;49.030;1.822;2022-12-10T01:36:37;100049.63;;;18.52;38.75
62544;BME280;48597;49.030;1.822;2022-12-10T01:39:06;100045.97;;;18.51;38.86
62544;BME280;48597;49.030;1.822;2022-12-10T01:41:37;100051.69;;;18.51;38.88
62544;BME280;48597;49.030;1.822;2022-12-10T01:46:36;100066.75;;;18.52;38.67
62544;BME280;48597;49.030;1.822;2022-12-10T01:49:04;100068.00;;;18.51;38.77
62544;BME280;48597;49.030;1.822;2022-12-10T01:51:33;100065.16;;;18.51;38.73
62544;BME280;48597;49.030;1.822;2022-12-10T01:54:00;100065.16;;;18.51;38.68
62544;BME280;48597;49.030;1.822;2022-12-10T01:56:25;100075.31;;;18.52;38.76
62544;BME280;48597;49.030;1.822;2022-12-10T01:58:56;100082.25;;;18.51;38.58
62544;BME280;48597;49.030;1.822;2022-12-10T02:11:29;100108.75;;;18.51;38.59
62544;BME280;48597;49.030;1.822;2022-12-10T02:17:27;100097.34;;;18.51;38.65
62544;BME280;48597;49.030;1.822;2022-12-10T02:20:02;100090.84;;;18.51;38.91
62544;BME280;48597;49.030;1.822;2022-12-10T02:22:39;100081.81;;;18.52;38.74
62544;BME280;48597;49.030;1.822;2022-12-10T02:25:10;100089.56;;;18.52;38.93
62544;BME280;48597;49.030;1.822;2022-12-10T02:28:02;100103.84;;;18.52;38.88
62544;BME280;48597;49.030;1.822;2022-12-10T02:30:31;100111.16;;;18.53;39.01
62544;BME280;48597;49.030;1.822;2022-12-10T02:33:00;100111.16;;;18.53;38.90
62544;BME280;48597;49.030;1.822;2022-12-10T02:35:31;100108.28;;;18.53;39.00
62544;BME280;48597;49.030;1.822;2022-12-10T02:38:26;100117.66;;;18.53;38.72
62544;BME280;48597;49.030;1.822;2022-12-10T02:41:01;100109.09;;;18.53;38.73
62544;BME280;48597;49.030;1.822;2022-12-10T02:43:29;100100.53;;;18.53;38.72
62544;BME280;48597;49.030;1.822;2022-12-10T02:45:57;100104.19;;;18.54;38.71
62544;BME280;48597;49.030;1.822;2022-12-10T02:48:24;100107.03;;;18.54;38.84
62544;BME280;48597;49.030;1.822;2022-12-10T02:50:50;100108.28;;;18.53;38.68
62544;BME280;48597;49.030;1.822;2022-12-10T02:53:16;100116.06;;;18.52;38.58
62544;BME280;48597;49.030;1.822;2022-12-10T02:58:17;100110.34;;;18.52;38.67
62544;BME280;48597;49.030;1.822;2022-12-10T03:01:02;100107.94;;;18.51;38.73
62544;BME280;48597;49.030;1.822;2022-12-10T03:03:49;100102.59;;;18.53;38.73
62544;BME280;48597;49.030;1.822;2022-12-10T03:06:30;100102.59;;;18.53;38.50
62544;BME280;48597;49.030;1.822;2022-12-10T03:09:13;100101.78;;;18.52;38.68
62544;BME280;48597;49.030;1.822;2022-12-10T03:11:43;100105.09;;;18.51;38.45
62544;BME280;48597;49.030;1.822;2022-12-10T03:14:13;100105.91;;;18.51;38.87
62544;BME280;48597;49.030;1.822;2022-12-10T03:16:47;100118.91;;;18.52;38.76
62544;BME280;48597;49.030;1.822;2022-12-10T03:19:17;100113.19;;;18.52;38.58
62544;BME280;48597;49.030;1.822;2022-12-10T03:21:46;100116.06;;;18.52;38.68
62544;BME280;48597;49.030;1.822;2022-12-10T03:24:15;100118.13;;;18.52;38.60
62544;BME280;48597;49.030;1.822;2022-12-10T03:26:44;100107.50;;;18.52;38.60
62544;BME280;48597;49.030;1.822;2022-12-10T03:29:17;100106.69;;;18.52;38.59
62544;BME280;48597;49.030;1.822;2022-12-10T03:31:46;100106.69;;;18.52;38.73
62544;BME280;48597;49.030;1.822;2022-12-10T03:34:13;100106.69;;;18.52;38.73
62544;BME280;48597;49.030;1.822;2022-12-10T03:36:39;100110.81;;;18.51;38.60
62544;BME280;48597;49.030;1.822;2022-12-10T03:39:07;100111.59;;;18.51;38.75
62544;BME280;48597;49.030;1.822;2022-12-10T03:41:33;100116.84;;;18.53;38.61
62544;BME280;48597;49.030;1.822;2022-12-10T03:43:59;100112.41;;;18.52;38.81
62544;BME280;48597;49.030;1.822;2022-12-10T03:46:27;100102.59;;;18.53;38.69
62544;BME280;48597;49.030;1.822;2022-12-10T03:48:53;100102.59;;;18.53;38.44
62544;BME280;48597;49.030;1.822;2022-12-10T03:51:20;100108.28;;;18.53;38.53
62544;BME280;48597;49.030;1.822;2022-12-10T03:53:45;100106.25;;;18.53;38.73
62544;BME280;48597;49.030;1.822;2022-12-10T03:56:10;100114.34;;;18.55;38.88
62544;BME280;48597;49.030;1.822;2022-12-10T03:58:36;100118.78;;;18.56;38.92
62544;BME280;48597;49.030;1.822;2022-12-10T04:01:03;100117.19;;;18.55;38.81
62544;BME280;48597;49.030;1.822;2022-12-10T04:03:28;100118.44;;;18.54;38.73
62544;BME280;48597;49.030;1.822;2022-12-10T04:05:54;100116.72;;;18.56;38.97
62544;BME280;48597;49.030;1.822;2022-12-10T04:08:20;100118.78;;;18.56;38.81
62544;BME280;48597;49.030;1.822;2022-12-10T04:10:49;100125.28;;;18.56;38.80
62544;BME280;48597;49.030;1.822;2022-12-10T04:13:14;100127.69;;;18.58;39.20
62544;BME280;48597;49.030;1.822;2022-12-10T04:15:58;100126.06;;;18.57;38.90
62544;BME280;48597;49.030;1.822;2022-12-10T04:18:42;100124.50;;;18.56;38.97
62544;BME280;48597;49.030;1.822;2022-12-10T04:21:08;100122.00;;;18.58;39.30
62544;BME280;48597;49.030;1.822;2022-12-10T04:23:52;100126.06;;;18.57;39.26
62544;BME280;48597;49.030;1.822;2022-12-10T04:26:36;100127.34;;;18.56;39.02
62544;BME280;48597;49.030;1.822;2022-12-10T04:29:21;100129.88;;;18.54;39.09
62544;BME280;48597;49.030;1.822;2022-12-10T04:31:47;100126.56;;;18.55;39.27
62544;BME280;48597;49.030;1.822;2022-12-10T04:34:12;100125.75;;;18.55;38.82
62544;BME280;48597;49.030;1.822;2022-12-10T04:36:38;100134.31;;;18.55;39.22
62544;BME280;48597;49.030;1.822;2022-12-10T04:39:05;100130.66;;;18.54;39.17
62544;BME280;48597;49.030;1.822;2022-12-10T04:41:30;100132.72;;;18.54;39.38
62544;BME280;48597;49.030;1.822;2022-12-10T04:43:56;100136.84;;;18.53;39.21
62544;BME280;48597;49.030;1.822;2022-12-10T04:46:23;100140.94;;;18.52;38.68
62544;BME280;48597;49.030;1.822;2022-12-10T04:48:48;100143.78;;;18.52;39.12
62544;BME280;48597;49.030;1.822;2022-12-10T04:51:14;100151.09;;;18.53;39.01
62544;BME280;48597;49.030;1.822;2022-12-10T04:53:39;100160.13;;;18.51;39.25
62544;BME280;48597;49.030;1.822;2022-12-10T04:56:05;100153.63;;;18.51;39.09
62544;BME280;48597;49.030;1.822;2022-12-10T04:58:32;100169.47;;;18.52;38.82
62544;BME280;48597;49.030;1.822;2022-12-10T05:01:06;100166.28;;;18.50;39.29
62544;BME280;48597;49.030;1.822;2022-12-10T05:03:33;100162.97;;;18.51;39.13
62544;BME280;48597;49.030;1.822;2022-12-10T05:06:07;100169.47;;;18.52;39.14
62544;BME280;48597;49.030;1.822;2022-12-10T05:08:34;100172.78;;;18.50;39.14
62544;BME280;48597;49.030;1.822;2022-12-10T05:11:01;100162.97;;;18.51;39.17
62544;BME280;48597;49.030;1.822;2022-12-10T05:13:27;100165.03;;;18.51;39.00
62544;BME280;48597;49.030;1.822;2022-12-10T05:15:53;100169.94;;;18.50;39.19
62544;BME280;48597;49.030;1.822;2022-12-10T05:18:18;100167.09;;;18.50;39.23
62544;BME280;48597;49.030;1.822;2022-12-10T05:20:53;100162.97;;;18.51;39.17
62544;BME280;48597;49.030;1.822;2022-12-10T05:23:19;100172.78;;;18.50;39.18
62544;BME280;48597;49.030;1.822;2022-12-10T05:31:16;100155.66;;;18.50;39.03
62544;BME280;48597;49.030;1.822;2022-12-10T05:33:42;100163.44;;;18.50;39.28
62544;BME280;48597;49.030;1.822;2022-12-10T05:36:12;100155.66;;;18.50;39.27
62544;BME280;48597;49.030;1.822;2022-12-10T05:38:38;100160.56;;;18.50;39.35
62544;BME280;48597;49.030;1.822;2022-12-10T05:41:09;100159.78;;;18.49;39.18
62544;BME280;48597;49.030;1.822;2022-12-10T05:43:36;100170.38;;;18.49;39.33
62544;BME280;48597;49.030;1.822;2022-12-10T05:46:03;100162.28;;;18.47;38.97
62544;BME280;48597;49.030;1.822;2022-12-10T05:48:29;100167.19;;;18.47;39.07
62544;BME280;48597;49.030;1.822;2022-12-10T05:50:55;100178.59;;;18.47;39.29
62544;BME280;48597;49.030;1.822;2022-12-10T05:53:21;100177.81;;;18.46;39.12
62544;BME280;48597;49.030;1.822;2022-12-10T05:55:47;100180.66;;;18.46;39.37
62544;BME280;48597;49.030;1.822;2022-12-10T05:58:13;100179.06;;;18.45;39.22
62544;BME280;48597;49.030;1.822;2022-12-10T06:00:40;100181.13;;;18.45;39.03
62544;BME280;48597;49.030;1.822;2022-12-10T06:03:05;100188.41;;;18.46;39.22
62544;BME280;48597;49.030;1.822;2022-12-10T06:05:38;100187.63;;;18.45;38.89
62544;BME280;48597;49.030;1.822;2022-12-10T06:08:06;100191.72;;;18.44;38.83
62544;BME280;48597;49.030;1.822;2022-12-10T06:10:35;100195.88;;;18.43;38.68
62544;BME280;48597;49.030;1.822;2022-12-10T06:13:02;100189.38;;;18.43;38.96
62544;BME280;48597;49.030;1.822;2022-12-10T06:15:27;100195.06;;;18.43;39.11
62544;BME280;48597;49.030;1.822;2022-12-10T06:17:57;100202.03;;;18.42;39.03
62544;BME280;48597;49.030;1.822;2022-12-10T06:20:24;100209.00;;;18.41;39.09
62544;BME280;48597;49.030;1.822;2022-12-10T06:22:50;100206.94;;;18.41;39.23
62544;BME280;48597;49.030;1.822;2022-12-10T06:25:16;100215.50;;;18.41;38.83
62544;BME280;48597;49.030;1.822;2022-12-10T06:27:41;100219.59;;;18.40;38.80
62544;BME280;48597;49.030;1.822;2022-12-10T06:30:07;100219.59;;;18.40;38.89
62544;BME280;48597;49.030;1.822;2022-12-10T06:32:32;100213.91;;;18.40;38.80
62544;BME280;48597;49.030;1.822;2022-12-10T06:34:58;100218.00;;;18.39;38.81
62544;BME280;48597;49.030;1.822;2022-12-10T06:37:23;100225.75;;;18.39;38.93
62544;BME280;48597;49.030;1.822;2022-12-10T06:39:52;100206.59;;;18.39;38.57
62544;BME280;48597;49.030;1.822;2022-12-10T06:42:18;100212.75;;;18.38;38.68
62544;BME280;48597;49.030;1.822;2022-12-10T06:44:44;100217.66;;;18.37;38.77
62544;BME280;48597;49.030;1.822;2022-12-10T06:47:09;100222.56;;;18.37;38.88
62544;BME280;48597;49.030;1.822;2022-12-10T06:49:38;100224.16;;;18.38;38.69
62544;BME280;48597;49.030;1.822;2022-12-10T06:52:04;100214.00;;;18.37;38.58
62544;BME280;48597;49.030;1.822;2022-12-10T06:54:30;100218.91;;;18.36;38.88
62544;BME280;48597;49.030;1.822;2022-12-10T06:56:56;100230.31;;;18.36;38.79
62544;BME280;48597;49.030;1.822;2022-12-10T06:59:22;100223.00;;;18.35;38.70
62544;BME280;48597;49.030;1.822;2022-12-10T07:01:49;100235.22;;;18.36;38.87
62544;BME280;48597;49.030;1.822;2022-12-10T07:04:15;100235.22;;;18.36;38.83
62544;BME280;48597;49.030;1.822;2022-12-10T07:06:40;100239.69;;;18.37;38.85
62544;BME280;48597;49.030;1.822;2022-12-10T07:09:06;100248.25;;;18.37;38.60
62544;BME280;48597;49.030;1.822;2022-12-10T07:11:32;100247.44;;;18.36;38.81
62544;BME280;48597;49.030;1.822;2022-12-10T07:13:58;100247.44;;;18.36;38.79
62544;BME280;48597;49.030;1.822;2022-12-10T07:16:26;100256.78;;;18.37;38.96
62544;BME280;48597;49.030;1.822;2022-12-10T07:18:54;100251.88;;;18.37;38.78
62544;BME280;48597;49.030;1.822;2022-12-10T07:21:24;100251.88;;;18.37;38.93
62544;BME280;48597;49.030;1.822;2022-12-10T07:23:51;100261.25;;;18.38;38.87
62544;BME280;48597;49.030;1.822;2022-12-10T07:26:20;100262.06;;;18.38;38.99
62544;BME280;48597;49.030;1.822;2022-12-10T07:28:46;100257.16;;;18.39;38.88
62544;BME280;48597;49.030;1.822;2022-12-10T07:31:12;100264.44;;;18.40;39.03
62544;BME280;48597;49.030;1.822;2022-12-10T07:33:37;100261.59;;;18.40;38.95
62544;BME280;48597;49.030;1.822;2022-12-10T07:36:05;100265.25;;;18.40;39.13
62544;BME280;48597;49.030;1.822;2022-12-10T07:38:31;100273.81;;;18.40;39.02
62544;BME280;48597;49.030;1.822;2022-12-10T07:40:56;100271.75;;;18.41;38.93
62544;BME280;48597;49.030;1.822;2022-12-10T07:43:21;100276.66;;;18.40;39.08
62544;BME280;48597;49.030;1.822;2022-12-10T07:45:47;100285.22;;;18.40;38.91
62544;BME280;48597;49.030;1.822;2022-12-10T07:48:12;100286.03;;;18.41;38.94
62544;BME280;48597;49.030;1.822;2022-12-10T07:50:38;100283.19;;;18.41;39.18
62544;BME280;48597;49.030;1.822;2022-12-10T07:53:03;100281.13;;;18.41;39.20
62544;BME280;48597;49.030;1.822;2022-12-10T07:55:28;100281.13;;;18.41;39.06
62544;BME280;48597;49.030;1.822;2022-12-10T07:57:55;100285.56;;;18.42;39.18
62544;BME280;48597;49.030;1.822;2022-12-10T08:00:20;100281.13;;;18.41;38.93
62544;BME280;48597;49.030;1.822;2022-12-10T08:02:46;100289.69;;;18.41;38.94
62544;BME280;48597;49.030;1.822;2022-12-10T08:05:14;100289.69;;;18.41;39.17
62544;BME280;48597;49.030;1.822;2022-12-10T08:07:40;100293.78;;;18.40;39.08
62544;BME280;48597;49.030;1.822;2022-12-10T08:10:06;100302.34;;;18.40;38.98
62544;BME280;48597;49.030;1.822;2022-12-10T08:12:32;100302.34;;;18.40;39.17
62544;BME280;48597;49.030;1.822;2022-12-10T08:14:57;100302.34;;;18.40;38.77
62544;BME280;48597;49.030;1.822;2022-12-10T08:17:23;100307.59;;;18.42;38.99
62544;BME280;48597;49.030;1.822;2022-12-10T08:19:49;100328.84;;;18.41;38.84
62544;BME280;48597;49.030;1.822;2022-12-10T08:22:16;100322.31;;;18.40;39.07
62544;BME280;48597;49.030;1.822;2022-12-10T08:24:41;100326.44;;;18.39;38.92
62544;BME280;48597;49.030;1.822;2022-12-10T08:27:07;100335.78;;;18.40;38.86
62544;BME280;48597;49.030;1.822;2022-12-10T08:29:32;100325.19;;;18.40;39.12
62544;BME280;48597;49.030;1.822;2022-12-10T08:31:57;100330.88;;;18.40;38.81
62544;BME280;48597;49.030;1.822;2022-12-10T08:34:24;100333.28;;;18.42;39.09
62544;BME280;48597;49.030;1.822;2022-12-10T08:36:49;100329.63;;;18.41;39.08
62544;BME280;48597;49.030;1.822;2022-12-10T08:39:15;100334.09;;;18.42;39.33
62544;BME280;48597;49.030;1.822;2022-12-10T08:41:43;100336.13;;;18.42;39.08
62544;BME280;48597;49.030;1.822;2022-12-10T08:44:10;100330.44;;;18.42;39.19
62544;BME280;48597;49.030;1.822;2022-12-10T08:46:35;100334.88;;;18.43;39.13
62544;BME280;48597;49.030;1.822;2022-12-10T08:49:00;100328.69;;;18.44;39.36
62544;BME280;48597;49.030;1.822;2022-12-10T08:51:26;100335.22;;;18.45;39.37
62544;BME280;48597;49.030;1.822;2022-12-10T08:53:53;100344.13;;;18.47;39.57
62544;BME280;48597;49.030;1.822;2022-12-10T08:56:26;100342.06;;;18.47;39.31
62544;BME280;48597;49.030;1.822;2022-12-10T08:58:51;100344.13;;;18.47;39.49
62544;BME280;48597;49.030;1.822;2022-12-10T09:01:18;100352.22;;;18.48;39.63
62544;BME280;48597;49.030;1.822;2022-12-10T09:03:44;100357.94;;;18.48;39.34
62544;BME280;48597;49.030;1.822;2022-12-10T09:06:13;100354.28;;;18.48;39.50
62544;BME280;48597;49.030;1.822;2022-12-10T09:08:39;100348.56;;;18.48;39.38
62544;BME280;48597;49.030;1.822;2022-12-10T09:11:09;100357.13;;;18.48;39.46
62544;BME280;48597;49.030;1.822;2022-12-10T09:13:35;100353.03;;;18.49;39.41
62544;BME280;48597;49.030;1.822;2022-12-10T09:16:00;100355.88;;;18.49;39.57
62544;BME280;48597;49.030;1.822;2022-12-10T09:18:29;100356.69;;;18.49;39.35
62544;BME280;48597;49.030;1.822;2022-12-10T09:20:54;100362.41;;;18.49;39.56
62544;BME280;48597;49.030;1.822;2022-12-10T09:23:19;100353.84;;;18.49;39.32
62544;BME280;48597;49.030;1.822;2022-12-10T09:25:45;100347.69;;;18.51;39.83
62544;BME280;48597;49.030;1.822;2022-12-10T09:28:10;100353.84;;;18.49;39.28
62544;BME280;48597;49.030;1.822;2022-12-10T09:30:36;100359.53;;;18.49;39.58
62544;BME280;48597;49.030;1.822;2022-12-10T09:33:01;100361.59;;;18.49;39.49
62544;BME280;48597;49.030;1.822;2022-12-10T09:35:27;100352.22;;;18.48;39.53
62544;BME280;48597;49.030;1.822;2022-12-10T09:37:52;100361.59;;;18.49;39.47
62544;BME280;48597;49.030;1.822;2022-12-10T09:40:34;100360.00;;;18.48;39.14
62544;BME280;48597;49.030;1.822;2022-12-10T09:45:52;100365.69;;;18.48;39.01
62544;BME280;48597;49.030;1.822;2022-12-10T09:48:37;100360.00;;;18.48;39.45
62544;BME280;48597;49.030;1.822;2022-12-10T09:51:13;100356.34;;;18.47;39.07
62544;BME280;48597;49.030;1.822;2022-12-10T09:53:42;100360.00;;;18.48;39.39
62544;BME280;48597;49.030;1.822;2022-12-10T09:56:16;100360.78;;;18.48;39.34
62544;BME280;48597;49.030;1.822;2022-12-10T09:58:45;100364.09;;;18.47;39.21
62544;BME280;48597;49.030;1.822;2022-12-10T10:01:14;100368.56;;;18.48;39.42
62544;BME280;48597;49.030;1.822;2022-12-10T10:03:42;100373.47;;;18.47;39.53
62544;BME280;48597;49.030;1.822;2022-12-10T10:06:13;100373.47;;;18.47;39.68
62544;BME280;48597;49.030;1.822;2022-12-10T10:09:01;100373.00;;;18.49;39.39
62544;BME280;48597;49.030;1.822;2022-12-10T10:11:31;100378.72;;;18.49;39.79
62544;BME280;48597;49.030;1.822;2022-12-10T10:14:11;100372.22;;;18.48;39.53
62544;BME280;48597;49.030;1.822;2022-12-10T10:16:43;100376.66;;;18.49;39.83
62544;BME280;48597;49.030;1.822;2022-12-10T10:19:15;100376.66;;;18.49;39.87
62544;BME280;48597;49.030;1.822;2022-12-10T10:21:43;100384.78;;;18.51;40.12
62544;BME280;48597;49.030;1.822;2022-12-10T10:24:15;100380.69;;;18.52;39.96
62544;BME280;48597;49.030;1.822;2022-12-10T10:26:42;100382.28;;;18.53;39.70
62544;BME280;48597;49.030;1.822;2022-12-10T10:29:11;100381.47;;;18.52;40.04
62544;BME280;48597;49.030;1.822;2022-12-10T10:31:40;100385.47;;;18.55;39.67
62544;BME280;48597;49.030;1.822;2022-12-10T10:34:17;100379.78;;;18.55;39.89
62544;BME280;48597;49.030;1.822;2022-12-10T10:36:47;100384.69;;;18.54;39.94
62544;BME280;48597;49.030;1.822;2022-12-10T10:41:41;100389.47;;;18.57;39.82
62544;BME280;48597;49.030;1.822;2022-12-10T10:44:22;100393.16;;;18.58;39.82
62544;BME280;48597;49.030;1.822;2022-12-10T10:46:51;100395.16;;;18.57;39.65
62544;BME280;48597;49.030;1.822;2022-12-10T10:52:15;100394.38;;;18.57;39.42
62544;BME280;48597;49.030;1.822;2022-12-10T10:54:43;100394.38;;;18.57;39.77
62544;BME280;48597;49.030;1.822;2022-12-10T10:57:32;100388.34;;;18.55;39.40
62544;BME280;48597;49.030;1.822;2022-12-10T11:00:19;100389.13;;;18.55;39.34
62544;BME280;48597;49.030;1.822;2022-12-10T11:02:45;100396.91;;;18.55;39.46
62544;BME280;48597;49.030;1.822;2022-12-10T11:05:24;100385.47;;;18.55;39.27
62544;BME280;48597;49.030;1.822;2022-12-10T11:07:58;100385.47;;;18.55;39.29
62544;BME280;48597;49.030;1.822;2022-12-10T11:10:24;100388.34;;;18.55;39.26
62544;BME280;48597;49.030;1.822;2022-12-10T11:13:29;100384.69;;;18.54;38.91
62544;BME280;48597;49.030;1.822;2022-12-10T11:16:09;100384.69;;;18.54;39.03
62544;BME280;48597;49.030;1.822;2022-12-10T11:18:38;100375.31;;;18.54;39.00
62544;BME280;48597;49.030;1.822;2022-12-10T11:21:25;100383.88;;;18.54;39.02
62544;BME280;48597;49.030;1.822;2022-12-10T11:23:53;100378.16;;;18.54;38.95
62544;BME280;48597;49.030;1.822;2022-12-10T11:26:49;100381.81;;;18.54;38.93
62544;BME280;48597;49.030;1.822;2022-12-10T11:32:21;100385.47;;;18.55;38.63
62544;BME280;48597;49.030;1.822;2022-12-10T11:35:12;100383.88;;;18.54;38.81
62544;BME280;48597;49.030;1.822;2022-12-10T11:37:58;100385.94;;;18.53;38.56
62544;BME280;48597;49.030;1.822;2022-12-10T11:51:03;100384.78;;;18.51;38.86
62544;BME280;48597;49.030;1.822;2022-12-10T11:53:48;100384.78;;;18.51;38.89
62544;BME280;48597;49.030;1.822;2022-12-10T11:56:35;100380.69;;;18.52;38.99
62544;BME280;48597;49.030;1.822;2022-12-10T11:59:16;100381.94;;;18.51;39.16
62544;BME280;48597;49.030;1.822;2022-12-10T12:02:08;100381.94;;;18.51;39.01
62544;BME280;48597;49.030;1.822;2022-12-10T12:07:36;100387.63;;;18.51;39.01
62544;BME280;48597;49.030;1.822;2022-12-10T12:10:35;100391.28;;;18.51;38.92
62544;BME280;48597;49.030;1.822;2022-12-10T12:13:23;100385.22;;;18.49;38.87
62544;BME280;48597;49.030;1.822;2022-12-10T12:21:30;100387.63;;;18.51;39.16
62544;BME280;48597;49.030;1.822;2022-12-10T12:27:01;100382.28;;;18.53;39.13
62544;BME280;48597;49.030;1.822;2022-12-10T12:32:27;100383.53;;;18.52;39.24
62544;BME280;48597;49.030;1.822;2022-12-10T12:35:18;100383.06;;;18.53;39.52
62544;BME280;48597;49.030;1.822;2022-12-10T12:37:55;100375.78;;;18.52;39.35
62544;BME280;48597;49.030;1.822;2022-12-10T12:40:34;100372.91;;;18.52;39.37
62544;BME280;48597;49.030;1.822;2022-12-10T12:43:08;100375.78;;;18.52;39.38
62544;BME280;48597;49.030;1.822;2022-12-10T12:45:49;100378.63;;;18.52;39.15
62544;BME280;48597;49.030;1.822;2022-12-10T12:51:00;100383.53;;;18.52;39.13
62544;BME280;48597;49.030;1.822;2022-12-10T12:53:27;100383.97;;;18.50;39.30
62544;BME280;48597;49.030;1.822;2022-12-10T12:59:01;100377.47;;;18.50;39.00
62544;BME280;48597;49.030;1.822;2022-12-10T13:04:04;100375.06;;;18.48;39.25
62544;BME280;48597;49.030;1.822;2022-12-10T13:06:37;100384.44;;;18.49;39.28
62544;BME280;48597;49.030;1.822;2022-12-10T13:23:03;100375.88;;;18.49;39.01
62544;BME280;48597;49.030;1.822;2022-12-10T13:25:57;100381.13;;;18.50;39.15
62544;BME280;48597;49.030;1.822;2022-12-10T13:31:18;100374.97;;;18.52;39.17
62544;BME280;48597;49.030;1.822;2022-12-10T13:41:29;100366.75;;;18.54;39.37
62544;BME280;48597;49.030;1.822;2022-12-10T13:47:27;100360.13;;;18.57;38.93
62544;BME280;48597;49.030;1.822;2022-12-10T13:49:59;100363.34;;;18.59;39.16
62544;BME280;48597;49.030;1.822;2022-12-10T13:52:38;100366.22;;;18.59;39.34
62544;BME280;48597;49.030;1.822;2022-12-10T14:01:10;100369.75;;;18.63;39.44
62544;BME280;48597;49.030;1.822;2022-12-10T14:06:21;100371.13;;;18.71;39.46
62544;BME280;48597;49.030;1.822;2022-12-10T14:08:57;100376.38;;;18.73;39.47
62544;BME280;48597;49.030;1.822;2022-12-10T14:11:30;100379.13;;;18.76;39.54
62544;BME280;48597;49.030;1.822;2022-12-10T14:13:59;100379.50;;;18.78;39.67
62544;BME280;48597;49.030;1.822;2022-12-10T14:16:31;100375.72;;;18.81;39.42
62544;BME280;48597;49.030;1.822;2022-12-10T14:19:03;100376.19;;;18.80;39.03
62544;BME280;48597;49.030;1.822;2022-12-10T14:21:34;100380.63;;;18.81;39.43
62544;BME280;48597;49.030;1.822;2022-12-10T14:24:01;100380.19;;;18.82;39.24
62544;BME280;48597;49.030;1.822;2022-12-10T14:26:31;100381.44;;;18.81;39.09
62544;BME280;48597;49.030;1.822;2022-12-10T14:29:00;100384.63;;;18.83;39.29
62544;BME280;48597;49.030;1.822;2022-12-10T14:31:39;100387.81;;;18.85;39.02
62544;BME280;48597;49.030;1.822;2022-12-10T14:34:10;100390.22;;;18.87;38.92
62544;BME280;48597;49.030;1.822;2022-12-10T14:36:43;100391.03;;;18.87;39.02
62544;BME280;48597;49.030;1.822;2022-12-10T14:39:16;100397.09;;;18.89;39.03
62544;BME280;48597;49.030;1.822;2022-12-10T14:41:43;100394.22;;;18.89;39.03
62544;BME280;48597;49.030;1.822;2022-12-10T14:44:14;100395.38;;;18.92;38.81
62544;BME280;48597;49.030;1.822;2022-12-10T14:46:40;100400.63;;;18.94;38.81
62544;BME280;48597;49.030;1.822;2022-12-10T14:49:08;100400.63;;;18.94;39.01